sensor_id;sensor_type;location;lat;lon;timestamp;P1;durP1;ratioP1;P2;durP2;ratioP2
20456;SDS011;10387;51.102;6.848;2023-03-01T00:01:28;13.50;;;10.83;;
20456;SDS011;10387;51.102;6.848;2023-03-01T00:03:56;13.13;;;10.47;;
20456;SDS011;10387;51.102;6.848;2023-03-01T00:06:22;14.10;;;11.87;;
20456;SDS011;10387;51.102;6.848;2023-03-01T00:08:49;12.33;;;10.37;;
20456;SDS011;10387;51.102;6.848;2023-03-01T00:11:17;12.37;;;10.80;;
20456;SDS011;10387;51.102;6.848;2023-03-01T00:13:44;13.57;;;11.23;;
20456;SDS011;10387;51.102;6.848;2023-03-01T00:16:14;13.57;;;10.93;;
20456;SDS011;10387;51.102;6.848;2023-03-01T00:18:41;13.80;;;10.93;;
20456;SDS011;10387;51.102;6.848;2023-03-01T00:21:07;16.97;;;11.87;;
20456;SDS011;10387;51.102;6.848;2023-03-01T00:23:33;14.83;;;11.17;;
20456;SDS011;10387;51.102;6.848;2023-03-01T00:26:00;12.40;;;10.47;;
20456;SDS011;10387;51.102;6.848;2023-03-01T00:28:26;13.57;;;10.23;;
20456;SDS011;10387;51.102;6.848;2023-03-01T00:30:51;14.00;;;10.83;;
20456;SDS011;10387;51.102;6.848;2023-03-01T00:33:17;12.13;;;10.60;;
20456;SDS011;10387;51.102;6.848;2023-03-01T00:35:43;13.13;;;11.07;;
20456;SDS011;10387;51.102;6.848;2023-03-01T00:38:09;12.53;;;11.13;;
20456;SDS011;10387;51.102;6.848;2023-03-01T00:40:35;12.23;;;10.37;;
20456;SDS011;10387;51.102;6.848;2023-03-01T00:43:01;14.00;;;11.60;;
20456;SDS011;10387;51.102;6.848;2023-03-01T00:45:28;12.80;;;10.50;;
20456;SDS011;10387;51.102;6.848;2023-03-01T00:47:55;13.43;;;10.93;;
20456;SDS011;10387;51.102;6.848;2023-03-01T00:50:21;11.87;;;10.67;;
20456;SDS011;10387;51.102;6.848;2023-03-01T00:52:51;11.87;;;10.53;;
20456;SDS011;10387;51.102;6.848;2023-03-01T00:55:18;15.63;;;11.50;;
20456;SDS011;10387;51.102;6.848;2023-03-01T00:57:44;13.73;;;11.33;;
20456;SDS011;10387;51.102;6.848;2023-03-01T01:00:10;13.00;;;10.43;;
20456;SDS011;10387;51.102;6.848;2023-03-01T01:02:36;15.50;;;11.33;;
20456;SDS011;10387;51.102;6.848;2023-03-01T01:05:02;12.90;;;10.53;;
20456;SDS011;10387;51.102;6.848;2023-03-01T01:07:28;11.97;;;10.23;;
20456;SDS011;10387;51.102;6.848;2023-03-01T01:09:54;14.47;;;11.33;;
20456;SDS011;10387;51.102;6.848;2023-03-01T01:12:20;13.90;;;11.53;;
20456;SDS011;10387;51.102;6.848;2023-03-01T01:14:45;12.37;;;11.07;;
20456;SDS011;10387;51.102;6.848;2023-03-01T01:17:11;14.90;;;11.33;;
20456;SDS011;10387;51.102;6.848;2023-03-01T01:19:37;13.37;;;11.53;;
20456;SDS011;10387;51.102;6.848;2023-03-01T01:22:03;14.27;;;11.20;;
20456;SDS011;10387;51.102;6.848;2023-03-01T01:24:28;12.93;;;11.30;;
20456;SDS011;10387;51.102;6.848;2023-03-01T01:26:54;12.87;;;11.13;;
20456;SDS011;10387;51.102;6.848;2023-03-01T01:29:20;15.00;;;12.17;;
20456;SDS011;10387;51.102;6.848;2023-03-01T01:31:46;14.10;;;11.73;;
20456;SDS011;10387;51.102;6.848;2023-03-01T01:34:13;13.27;;;11.07;;
20456;SDS011;10387;51.102;6.848;2023-03-01T01:36:40;14.67;;;10.93;;
20456;SDS011;10387;51.102;6.848;2023-03-01T01:39:06;14.07;;;11.30;;
20456;SDS011;10387;51.102;6.848;2023-03-01T01:41:32;17.57;;;12.43;;
20456;SDS011;10387;51.102;6.848;2023-03-01T01:49:36;14.60;;;12.40;;
20456;SDS011;10387;51.102;6.848;2023-03-01T01:52:21;14.10;;;12.60;;
20456;SDS011;10387;51.102;6.848;2023-03-01T01:57:29;15.33;;;11.90;;
20456;SDS011;10387;51.102;6.848;2023-03-01T02:00:00;14.23;;;12.10;;
20456;SDS011;10387;51.102;6.848;2023-03-01T02:02:38;15.47;;;12.63;;
20456;SDS011;10387;51.102;6.848;2023-03-01T02:05:08;15.87;;;12.77;;
20456;SDS011;10387;51.102;6.848;2023-03-01T02:07:40;14.57;;;12.00;;
20456;SDS011;10387;51.102;6.848;2023-03-01T02:10:08;14.07;;;12.10;;
20456;SDS011;10387;51.102;6.848;2023-03-01T02:12:34;16.63;;;12.43;;
20456;SDS011;10387;51.102;6.848;2023-03-01T02:15:02;14.40;;;12.07;;
20456;SDS011;10387;51.102;6.848;2023-03-01T02:17:29;14.73;;;12.03;;
20456;SDS011;10387;51.102;6.848;2023-03-01T02:22:57;16.40;;;12.47;;
20456;SDS011;10387;51.102;6.848;2023-03-01T02:30:43;15.43;;;12.57;;
20456;SDS011;10387;51.102;6.848;2023-03-01T02:33:33;15.70;;;12.77;;
20456;SDS011;10387;51.102;6.848;2023-03-01T02:36:06;14.03;;;12.07;;
20456;SDS011;10387;51.102;6.848;2023-03-01T02:38:36;17.03;;;12.40;;
20456;SDS011;10387;51.102;6.848;2023-03-01T02:41:02;15.20;;;12.20;;
20456;SDS011;10387;51.102;6.848;2023-03-01T02:43:31;15.30;;;12.73;;
20456;SDS011;10387;51.102;6.848;2023-03-01T02:45:58;16.87;;;12.30;;
20456;SDS011;10387;51.102;6.848;2023-03-01T02:48:40;14.90;;;12.37;;
20456;SDS011;10387;51.102;6.848;2023-03-01T02:56:33;16.33;;;12.70;;
20456;SDS011;10387;51.102;6.848;2023-03-01T02:58:59;15.60;;;12.40;;
20456;SDS011;10387;51.102;6.848;2023-03-01T03:01:27;16.70;;;12.77;;
20456;SDS011;10387;51.102;6.848;2023-03-01T03:04:06;17.23;;;12.57;;
20456;SDS011;10387;51.102;6.848;2023-03-01T03:06:35;15.50;;;11.93;;
20456;SDS011;10387;51.102;6.848;2023-03-01T03:09:02;15.57;;;12.50;;
20456;SDS011;10387;51.102;6.848;2023-03-01T03:11:29;16.40;;;12.03;;
20456;SDS011;10387;51.102;6.848;2023-03-01T03:13:56;17.17;;;12.97;;
20456;SDS011;10387;51.102;6.848;2023-03-01T03:16:22;17.90;;;12.93;;
20456;SDS011;10387;51.102;6.848;2023-03-01T03:18:49;17.17;;;12.87;;
20456;SDS011;10387;51.102;6.848;2023-03-01T03:21:15;17.57;;;12.80;;
20456;SDS011;10387;51.102;6.848;2023-03-01T03:23:41;15.60;;;12.87;;
20456;SDS011;10387;51.102;6.848;2023-03-01T03:26:09;18.40;;;12.97;;
20456;SDS011;10387;51.102;6.848;2023-03-01T03:28:38;17.27;;;12.63;;
20456;SDS011;10387;51.102;6.848;2023-03-01T03:31:05;15.60;;;12.47;;
20456;SDS011;10387;51.102;6.848;2023-03-01T03:33:32;16.00;;;13.17;;
20456;SDS011;10387;51.102;6.848;2023-03-01T03:35:58;19.13;;;13.07;;
20456;SDS011;10387;51.102;6.848;2023-03-01T03:38:23;16.23;;;12.77;;
20456;SDS011;10387;51.102;6.848;2023-03-01T03:40:50;16.27;;;12.53;;
20456;SDS011;10387;51.102;6.848;2023-03-01T03:43:28;17.27;;;13.57;;
20456;SDS011;10387;51.102;6.848;2023-03-01T03:45:55;18.80;;;13.20;;
20456;SDS011;10387;51.102;6.848;2023-03-01T03:48:22;17.80;;;13.10;;
20456;SDS011;10387;51.102;6.848;2023-03-01T03:50:52;15.00;;;13.07;;
20456;SDS011;10387;51.102;6.848;2023-03-01T03:53:20;18.00;;;12.60;;
20456;SDS011;10387;51.102;6.848;2023-03-01T03:55:47;16.37;;;13.00;;
20456;SDS011;10387;51.102;6.848;2023-03-01T03:58:14;16.30;;;13.50;;
20456;SDS011;10387;51.102;6.848;2023-03-01T04:00:42;17.60;;;12.40;;
20456;SDS011;10387;51.102;6.848;2023-03-01T04:03:10;16.57;;;12.93;;
20456;SDS011;10387;51.102;6.848;2023-03-01T04:05:38;18.07;;;12.93;;
20456;SDS011;10387;51.102;6.848;2023-03-01T04:08:05;18.37;;;13.23;;
20456;SDS011;10387;51.102;6.848;2023-03-01T04:10:36;18.97;;;13.07;;
20456;SDS011;10387;51.102;6.848;2023-03-01T04:13:08;17.27;;;13.03;;
20456;SDS011;10387;51.102;6.848;2023-03-01T04:15:36;16.97;;;12.40;;
20456;SDS011;10387;51.102;6.848;2023-03-01T04:18:02;17.10;;;13.33;;
20456;SDS011;10387;51.102;6.848;2023-03-01T04:20:29;16.83;;;12.63;;
20456;SDS011;10387;51.102;6.848;2023-03-01T04:23:06;16.40;;;12.97;;
20456;SDS011;10387;51.102;6.848;2023-03-01T04:28:07;17.63;;;12.80;;
20456;SDS011;10387;51.102;6.848;2023-03-01T04:30:34;16.77;;;12.67;;
20456;SDS011;10387;51.102;6.848;2023-03-01T04:33:01;17.60;;;13.53;;
20456;SDS011;10387;51.102;6.848;2023-03-01T04:35:28;17.67;;;12.70;;
20456;SDS011;10387;51.102;6.848;2023-03-01T04:37:56;16.60;;;12.80;;
20456;SDS011;10387;51.102;6.848;2023-03-01T04:40:22;15.27;;;12.23;;
20456;SDS011;10387;51.102;6.848;2023-03-01T04:42:48;18.13;;;13.10;;
20456;SDS011;10387;51.102;6.848;2023-03-01T04:45:14;15.63;;;12.50;;
20456;SDS011;10387;51.102;6.848;2023-03-01T04:47:43;16.20;;;12.47;;
20456;SDS011;10387;51.102;6.848;2023-03-01T04:50:11;16.23;;;12.70;;
20456;SDS011;10387;51.102;6.848;2023-03-01T04:52:39;17.23;;;13.07;;
20456;SDS011;10387;51.102;6.848;2023-03-01T04:55:05;15.90;;;12.13;;
20456;SDS011;10387;51.102;6.848;2023-03-01T04:57:31;18.80;;;12.77;;
20456;SDS011;10387;51.102;6.848;2023-03-01T04:59:57;15.40;;;13.47;;
20456;SDS011;10387;51.102;6.848;2023-03-01T05:02:23;19.63;;;12.93;;
20456;SDS011;10387;51.102;6.848;2023-03-01T05:04:49;18.40;;;12.97;;
20456;SDS011;10387;51.102;6.848;2023-03-01T05:07:14;16.73;;;13.07;;
20456;SDS011;10387;51.102;6.848;2023-03-01T05:09:48;17.40;;;13.53;;
20456;SDS011;10387;51.102;6.848;2023-03-01T05:12:14;16.87;;;13.23;;
20456;SDS011;10387;51.102;6.848;2023-03-01T05:14:40;16.50;;;13.30;;
20456;SDS011;10387;51.102;6.848;2023-03-01T05:17:06;15.43;;;12.17;;
20456;SDS011;10387;51.102;6.848;2023-03-01T05:19:32;18.67;;;13.20;;
20456;SDS011;10387;51.102;6.848;2023-03-01T05:21:58;15.97;;;12.63;;
20456;SDS011;10387;51.102;6.848;2023-03-01T05:24:27;18.13;;;13.30;;
20456;SDS011;10387;51.102;6.848;2023-03-01T05:26:54;19.17;;;12.97;;
20456;SDS011;10387;51.102;6.848;2023-03-01T05:29:20;19.13;;;14.07;;
20456;SDS011;10387;51.102;6.848;2023-03-01T05:31:59;18.70;;;13.20;;
20456;SDS011;10387;51.102;6.848;2023-03-01T05:34:27;18.80;;;14.13;;
20456;SDS011;10387;51.102;6.848;2023-03-01T05:36:55;19.93;;;13.90;;
20456;SDS011;10387;51.102;6.848;2023-03-01T05:39:21;17.33;;;13.67;;
20456;SDS011;10387;51.102;6.848;2023-03-01T05:41:51;18.27;;;13.60;;
20456;SDS011;10387;51.102;6.848;2023-03-01T05:44:18;17.80;;;13.30;;
20456;SDS011;10387;51.102;6.848;2023-03-01T05:46:43;18.73;;;13.90;;
20456;SDS011;10387;51.102;6.848;2023-03-01T05:49:10;18.00;;;13.93;;
20456;SDS011;10387;51.102;6.848;2023-03-01T05:51:38;19.50;;;13.70;;
20456;SDS011;10387;51.102;6.848;2023-03-01T05:54:04;17.40;;;13.03;;
20456;SDS011;10387;51.102;6.848;2023-03-01T05:56:32;18.23;;;13.30;;
20456;SDS011;10387;51.102;6.848;2023-03-01T05:58:59;16.80;;;13.30;;
20456;SDS011;10387;51.102;6.848;2023-03-01T06:01:25;17.73;;;12.60;;
20456;SDS011;10387;51.102;6.848;2023-03-01T06:03:51;18.23;;;13.33;;
20456;SDS011;10387;51.102;6.848;2023-03-01T06:06:17;18.73;;;13.87;;
20456;SDS011;10387;51.102;6.848;2023-03-01T06:08:42;17.57;;;14.00;;
20456;SDS011;10387;51.102;6.848;2023-03-01T06:11:08;21.23;;;14.13;;
20456;SDS011;10387;51.102;6.848;2023-03-01T06:13:34;18.10;;;13.70;;
20456;SDS011;10387;51.102;6.848;2023-03-01T06:15:59;18.23;;;13.30;;
20456;SDS011;10387;51.102;6.848;2023-03-01T06:18:25;19.07;;;14.47;;
20456;SDS011;10387;51.102;6.848;2023-03-01T06:20:54;20.27;;;14.67;;
20456;SDS011;10387;51.102;6.848;2023-03-01T06:23:21;18.93;;;13.53;;
20456;SDS011;10387;51.102;6.848;2023-03-01T06:25:48;17.83;;;13.90;;
20456;SDS011;10387;51.102;6.848;2023-03-01T06:28:14;19.07;;;14.80;;
20456;SDS011;10387;51.102;6.848;2023-03-01T06:30:40;23.20;;;14.73;;
20456;SDS011;10387;51.102;6.848;2023-03-01T06:33:05;18.90;;;13.23;;
20456;SDS011;10387;51.102;6.848;2023-03-01T06:35:31;20.67;;;14.13;;
20456;SDS011;10387;51.102;6.848;2023-03-01T06:37:57;18.23;;;14.20;;
20456;SDS011;10387;51.102;6.848;2023-03-01T06:40:25;18.93;;;13.93;;
20456;SDS011;10387;51.102;6.848;2023-03-01T06:42:50;19.50;;;14.80;;
20456;SDS011;10387;51.102;6.848;2023-03-01T06:45:17;20.13;;;14.43;;
20456;SDS011;10387;51.102;6.848;2023-03-01T06:47:43;23.40;;;15.10;;
20456;SDS011;10387;51.102;6.848;2023-03-01T06:50:09;19.23;;;14.37;;
20456;SDS011;10387;51.102;6.848;2023-03-01T06:52:36;21.67;;;15.23;;
20456;SDS011;10387;51.102;6.848;2023-03-01T06:55:02;20.40;;;14.60;;
20456;SDS011;10387;51.102;6.848;2023-03-01T06:57:28;19.07;;;13.27;;
20456;SDS011;10387;51.102;6.848;2023-03-01T06:59:54;21.53;;;15.07;;
20456;SDS011;10387;51.102;6.848;2023-03-01T07:02:20;20.27;;;14.87;;
20456;SDS011;10387;51.102;6.848;2023-03-01T07:04:45;19.93;;;14.43;;
20456;SDS011;10387;51.102;6.848;2023-03-01T07:07:11;19.23;;;14.53;;
20456;SDS011;10387;51.102;6.848;2023-03-01T07:09:37;18.77;;;13.83;;
20456;SDS011;10387;51.102;6.848;2023-03-01T07:12:03;21.07;;;15.03;;
20456;SDS011;10387;51.102;6.848;2023-03-01T07:14:28;21.37;;;14.93;;
20456;SDS011;10387;51.102;6.848;2023-03-01T07:16:54;23.00;;;15.00;;
20456;SDS011;10387;51.102;6.848;2023-03-01T07:19:20;22.93;;;14.00;;
20456;SDS011;10387;51.102;6.848;2023-03-01T07:21:47;21.27;;;15.20;;
20456;SDS011;10387;51.102;6.848;2023-03-01T07:24:12;18.37;;;14.40;;
20456;SDS011;10387;51.102;6.848;2023-03-01T07:26:38;21.10;;;14.93;;
20456;SDS011;10387;51.102;6.848;2023-03-01T07:29:05;20.77;;;15.10;;
20456;SDS011;10387;51.102;6.848;2023-03-01T07:31:31;18.67;;;15.13;;
20456;SDS011;10387;51.102;6.848;2023-03-01T07:33:57;22.77;;;14.50;;
20456;SDS011;10387;51.102;6.848;2023-03-01T07:36:24;20.10;;;15.57;;
20456;SDS011;10387;51.102;6.848;2023-03-01T07:38:50;19.43;;;14.73;;
20456;SDS011;10387;51.102;6.848;2023-03-01T07:41:16;21.77;;;16.20;;
20456;SDS011;10387;51.102;6.848;2023-03-01T07:43:42;20.03;;;14.87;;
20456;SDS011;10387;51.102;6.848;2023-03-01T07:46:09;20.80;;;14.63;;
20456;SDS011;10387;51.102;6.848;2023-03-01T07:48:34;20.83;;;14.80;;
20456;SDS011;10387;51.102;6.848;2023-03-01T07:51:00;20.20;;;14.93;;
20456;SDS011;10387;51.102;6.848;2023-03-01T07:53:28;20.20;;;14.77;;
20456;SDS011;10387;51.102;6.848;2023-03-01T07:56:01;22.17;;;15.87;;
20456;SDS011;10387;51.102;6.848;2023-03-01T07:58:30;20.13;;;15.40;;
20456;SDS011;10387;51.102;6.848;2023-03-01T08:00:56;20.30;;;15.53;;
20456;SDS011;10387;51.102;6.848;2023-03-01T08:03:25;20.87;;;15.87;;
20456;SDS011;10387;51.102;6.848;2023-03-01T08:05:51;20.53;;;15.37;;
20456;SDS011;10387;51.102;6.848;2023-03-01T08:08:16;22.87;;;15.00;;
20456;SDS011;10387;51.102;6.848;2023-03-01T08:10:42;19.33;;;14.73;;
20456;SDS011;10387;51.102;6.848;2023-03-01T08:13:08;19.03;;;14.80;;
20456;SDS011;10387;51.102;6.848;2023-03-01T08:15:33;19.40;;;14.83;;
20456;SDS011;10387;51.102;6.848;2023-03-01T08:17:59;18.80;;;15.17;;
20456;SDS011;10387;51.102;6.848;2023-03-01T08:20:25;18.30;;;14.67;;
20456;SDS011;10387;51.102;6.848;2023-03-01T08:22:51;20.57;;;16.00;;
20456;SDS011;10387;51.102;6.848;2023-03-01T08:25:17;20.33;;;14.97;;
20456;SDS011;10387;51.102;6.848;2023-03-01T08:27:43;21.50;;;15.87;;
20456;SDS011;10387;51.102;6.848;2023-03-01T08:30:09;21.47;;;15.63;;
20456;SDS011;10387;51.102;6.848;2023-03-01T08:32:36;21.10;;;15.87;;
20456;SDS011;10387;51.102;6.848;2023-03-01T08:35:03;21.07;;;14.47;;
20456;SDS011;10387;51.102;6.848;2023-03-01T08:37:29;19.40;;;15.40;;
20456;SDS011;10387;51.102;6.848;2023-03-01T08:39:58;21.70;;;15.60;;
20456;SDS011;10387;51.102;6.848;2023-03-01T08:42:25;21.33;;;14.77;;
20456;SDS011;10387;51.102;6.848;2023-03-01T08:44:52;26.83;;;16.37;;
20456;SDS011;10387;51.102;6.848;2023-03-01T08:47:17;19.30;;;14.67;;
20456;SDS011;10387;51.102;6.848;2023-03-01T08:49:43;20.90;;;15.13;;
20456;SDS011;10387;51.102;6.848;2023-03-01T08:52:09;19.47;;;15.17;;
20456;SDS011;10387;51.102;6.848;2023-03-01T08:54:35;18.73;;;14.50;;
20456;SDS011;10387;51.102;6.848;2023-03-01T08:57:02;19.67;;;14.70;;
20456;SDS011;10387;51.102;6.848;2023-03-01T08:59:28;15.43;;;12.80;;
20456;SDS011;10387;51.102;6.848;2023-03-01T09:01:55;18.67;;;13.37;;
20456;SDS011;10387;51.102;6.848;2023-03-01T09:04:20;13.87;;;12.27;;
20456;SDS011;10387;51.102;6.848;2023-03-01T09:06:46;16.13;;;13.13;;
20456;SDS011;10387;51.102;6.848;2023-03-01T09:09:16;17.07;;;12.20;;
20456;SDS011;10387;51.102;6.848;2023-03-01T09:11:43;14.63;;;12.50;;
20456;SDS011;10387;51.102;6.848;2023-03-01T09:14:11;15.50;;;12.27;;
20456;SDS011;10387;51.102;6.848;2023-03-01T09:16:37;16.47;;;11.97;;
20456;SDS011;10387;51.102;6.848;2023-03-01T09:19:03;15.23;;;11.57;;
20456;SDS011;10387;51.102;6.848;2023-03-01T09:21:29;17.07;;;11.87;;
20456;SDS011;10387;51.102;6.848;2023-03-01T09:23:55;16.83;;;13.13;;
20456;SDS011;10387;51.102;6.848;2023-03-01T09:26:22;14.10;;;11.13;;
20456;SDS011;10387;51.102;6.848;2023-03-01T09:28:50;15.27;;;12.10;;
20456;SDS011;10387;51.102;6.848;2023-03-01T09:31:17;16.63;;;12.23;;
20456;SDS011;10387;51.102;6.848;2023-03-01T09:33:48;16.57;;;11.47;;
20456;SDS011;10387;51.102;6.848;2023-03-01T09:36:16;14.17;;;11.20;;
20456;SDS011;10387;51.102;6.848;2023-03-01T09:38:46;14.50;;;11.37;;
20456;SDS011;10387;51.102;6.848;2023-03-01T09:46:58;14.50;;;11.10;;
20456;SDS011;10387;51.102;6.848;2023-03-01T09:49:26;13.27;;;10.60;;
20456;SDS011;10387;51.102;6.848;2023-03-01T09:54:39;11.57;;;9.77;;
20456;SDS011;10387;51.102;6.848;2023-03-01T09:57:15;12.47;;;10.97;;
20456;SDS011;10387;51.102;6.848;2023-03-01T10:02:41;13.90;;;10.63;;
20456;SDS011;10387;51.102;6.848;2023-03-01T10:08:26;14.77;;;10.70;;
20456;SDS011;10387;51.102;6.848;2023-03-01T10:11:31;12.43;;;10.33;;
20456;SDS011;10387;51.102;6.848;2023-03-01T10:14:18;13.93;;;11.20;;
20456;SDS011;10387;51.102;6.848;2023-03-01T10:16:56;12.87;;;10.80;;
20456;SDS011;10387;51.102;6.848;2023-03-01T10:19:30;13.33;;;10.53;;
20456;SDS011;10387;51.102;6.848;2023-03-01T10:22:18;16.80;;;11.27;;
20456;SDS011;10387;51.102;6.848;2023-03-01T10:24:46;12.60;;;11.10;;
20456;SDS011;10387;51.102;6.848;2023-03-01T10:27:21;14.40;;;11.30;;
20456;SDS011;10387;51.102;6.848;2023-03-01T10:29:50;13.27;;;10.77;;
20456;SDS011;10387;51.102;6.848;2023-03-01T10:32:17;12.67;;;11.07;;
20456;SDS011;10387;51.102;6.848;2023-03-01T10:34:43;13.57;;;11.00;;
20456;SDS011;10387;51.102;6.848;2023-03-01T10:37:16;13.97;;;11.17;;
20456;SDS011;10387;51.102;6.848;2023-03-01T10:39:56;13.93;;;11.60;;
20456;SDS011;10387;51.102;6.848;2023-03-01T10:42:31;13.33;;;11.93;;
20456;SDS011;10387;51.102;6.848;2023-03-01T10:48:33;13.87;;;10.90;;
20456;SDS011;10387;51.102;6.848;2023-03-01T10:56:01;25.20;;;17.37;;
20456;SDS011;10387;51.102;6.848;2023-03-01T10:58:34;16.33;;;12.07;;
20456;SDS011;10387;51.102;6.848;2023-03-01T11:03:34;14.00;;;11.13;;
20456;SDS011;10387;51.102;6.848;2023-03-01T11:06:21;13.83;;;10.73;;
20456;SDS011;10387;51.102;6.848;2023-03-01T11:08:48;17.00;;;12.70;;
20456;SDS011;10387;51.102;6.848;2023-03-01T11:16:32;12.50;;;10.27;;
20456;SDS011;10387;51.102;6.848;2023-03-01T11:19:13;13.23;;;10.63;;
20456;SDS011;10387;51.102;6.848;2023-03-01T11:21:50;12.10;;;10.77;;
20456;SDS011;10387;51.102;6.848;2023-03-01T11:24:29;12.63;;;10.20;;
20456;SDS011;10387;51.102;6.848;2023-03-01T11:26:59;13.13;;;10.90;;
20456;SDS011;10387;51.102;6.848;2023-03-01T11:32:01;11.87;;;9.20;;
20456;SDS011;10387;51.102;6.848;2023-03-01T11:37:23;11.80;;;10.20;;
20456;SDS011;10387;51.102;6.848;2023-03-01T11:42:43;12.73;;;9.83;;
20456;SDS011;10387;51.102;6.848;2023-03-01T11:45:17;12.83;;;10.13;;
20456;SDS011;10387;51.102;6.848;2023-03-01T11:50:42;13.70;;;11.27;;
20456;SDS011;10387;51.102;6.848;2023-03-01T11:53:30;14.57;;;10.93;;
20456;SDS011;10387;51.102;6.848;2023-03-01T12:10:26;13.13;;;10.60;;
20456;SDS011;10387;51.102;6.848;2023-03-01T12:12:57;13.37;;;10.60;;
20456;SDS011;10387;51.102;6.848;2023-03-01T12:15:44;13.53;;;10.73;;
20456;SDS011;10387;51.102;6.848;2023-03-01T12:18:13;14.07;;;11.20;;
20456;SDS011;10387;51.102;6.848;2023-03-01T12:23:57;14.60;;;11.60;;
20456;SDS011;10387;51.102;6.848;2023-03-01T12:26:36;15.30;;;11.40;;
20456;SDS011;10387;51.102;6.848;2023-03-01T12:37:36;15.50;;;12.33;;
20456;SDS011;10387;51.102;6.848;2023-03-01T12:43:15;14.80;;;12.00;;
20456;SDS011;10387;51.102;6.848;2023-03-01T12:49:26;15.33;;;11.17;;
20456;SDS011;10387;51.102;6.848;2023-03-01T12:52:00;13.33;;;11.33;;
20456;SDS011;10387;51.102;6.848;2023-03-01T12:54:44;15.37;;;12.33;;
20456;SDS011;10387;51.102;6.848;2023-03-01T13:02:48;15.87;;;11.47;;
20456;SDS011;10387;51.102;6.848;2023-03-01T13:05:39;12.30;;;11.00;;
20456;SDS011;10387;51.102;6.848;2023-03-01T13:08:16;15.20;;;10.60;;
20456;SDS011;10387;51.102;6.848;2023-03-01T13:10:57;14.97;;;11.67;;
20456;SDS011;10387;51.102;6.848;2023-03-01T13:13:27;13.83;;;11.30;;
20456;SDS011;10387;51.102;6.848;2023-03-01T13:15:53;14.70;;;11.17;;
20456;SDS011;10387;51.102;6.848;2023-03-01T13:20:49;14.17;;;10.47;;
20456;SDS011;10387;51.102;6.848;2023-03-01T13:26:17;12.93;;;10.33;;
20456;SDS011;10387;51.102;6.848;2023-03-01T13:31:10;13.53;;;10.60;;
20456;SDS011;10387;51.102;6.848;2023-03-01T13:33:56;12.23;;;9.93;;
20456;SDS011;10387;51.102;6.848;2023-03-01T13:47:04;12.87;;;8.50;;
20456;SDS011;10387;51.102;6.848;2023-03-01T13:49:41;10.90;;;9.20;;
20456;SDS011;10387;51.102;6.848;2023-03-01T13:52:43;12.80;;;9.30;;
20456;SDS011;10387;51.102;6.848;2023-03-01T13:55:21;11.33;;;9.67;;
20456;SDS011;10387;51.102;6.848;2023-03-01T13:58:44;12.37;;;9.40;;
20456;SDS011;10387;51.102;6.848;2023-03-01T14:01:21;13.90;;;10.17;;
20456;SDS011;10387;51.102;6.848;2023-03-01T14:03:55;12.70;;;10.27;;
20456;SDS011;10387;51.102;6.848;2023-03-01T14:06:22;12.73;;;10.47;;
20456;SDS011;10387;51.102;6.848;2023-03-01T14:08:52;12.57;;;10.27;;
20456;SDS011;10387;51.102;6.848;2023-03-01T14:11:59;11.97;;;9.87;;
20456;SDS011;10387;51.102;6.848;2023-03-01T14:22:38;11.40;;;9.60;;
20456;SDS011;10387;51.102;6.848;2023-03-01T14:25:16;10.03;;;8.83;;
20456;SDS011;10387;51.102;6.848;2023-03-01T14:27:52;11.43;;;9.87;;
20456;SDS011;10387;51.102;6.848;2023-03-01T14:30:34;11.10;;;9.90;;
20456;SDS011;10387;51.102;6.848;2023-03-01T14:33:04;12.67;;;9.90;;
20456;SDS011;10387;51.102;6.848;2023-03-01T14:35:33;11.10;;;9.47;;
20456;SDS011;10387;51.102;6.848;2023-03-01T14:38:00;14.40;;;9.40;;
20456;SDS011;10387;51.102;6.848;2023-03-01T14:40:28;10.83;;;9.73;;
20456;SDS011;10387;51.102;6.848;2023-03-01T14:43:00;11.90;;;9.57;;
20456;SDS011;10387;51.102;6.848;2023-03-01T14:45:33;11.53;;;9.23;;
20456;SDS011;10387;51.102;6.848;2023-03-01T14:48:00;12.60;;;9.40;;
20456;SDS011;10387;51.102;6.848;2023-03-01T14:50:30;11.97;;;9.40;;
20456;SDS011;10387;51.102;6.848;2023-03-01T14:53:04;10.70;;;9.03;;
20456;SDS011;10387;51.102;6.848;2023-03-01T14:55:34;12.57;;;8.97;;
20456;SDS011;10387;51.102;6.848;2023-03-01T14:58:03;12.13;;;9.07;;
20456;SDS011;10387;51.102;6.848;2023-03-01T15:00:31;12.60;;;9.47;;
20456;SDS011;10387;51.102;6.848;2023-03-01T15:03:42;11.17;;;8.90;;
20456;SDS011;10387;51.102;6.848;2023-03-01T15:06:05;11.20;;;9.00;;
20456;SDS011;10387;51.102;6.848;2023-03-01T15:08:33;10.60;;;9.20;;
20456;SDS011;10387;51.102;6.848;2023-03-01T15:13:41;12.47;;;9.67;;
20456;SDS011;10387;51.102;6.848;2023-03-01T15:16:11;11.03;;;8.40;;
20456;SDS011;10387;51.102;6.848;2023-03-01T15:18:43;13.50;;;9.30;;
20456;SDS011;10387;51.102;6.848;2023-03-01T15:21:33;10.83;;;8.73;;
20456;SDS011;10387;51.102;6.848;2023-03-01T15:26:46;11.50;;;9.07;;
20456;SDS011;10387;51.102;6.848;2023-03-01T15:29:20;10.33;;;8.47;;
20456;SDS011;10387;51.102;6.848;2023-03-01T15:34:46;11.10;;;8.77;;
20456;SDS011;10387;51.102;6.848;2023-03-01T15:39:59;12.43;;;8.50;;
20456;SDS011;10387;51.102;6.848;2023-03-01T15:47:46;10.03;;;7.90;;
20456;SDS011;10387;51.102;6.848;2023-03-01T15:52:45;8.93;;;7.50;;
20456;SDS011;10387;51.102;6.848;2023-03-01T15:55:30;8.70;;;7.33;;
20456;SDS011;10387;51.102;6.848;2023-03-01T15:57:59;9.90;;;7.67;;
20456;SDS011;10387;51.102;6.848;2023-03-01T16:00:26;10.23;;;8.03;;
20456;SDS011;10387;51.102;6.848;2023-03-01T16:02:52;8.87;;;6.77;;
20456;SDS011;10387;51.102;6.848;2023-03-01T16:05:19;9.03;;;7.90;;
20456;SDS011;10387;51.102;6.848;2023-03-01T16:07:50;12.70;;;10.33;;
20456;SDS011;10387;51.102;6.848;2023-03-01T16:10:16;13.93;;;10.47;;
20456;SDS011;10387;51.102;6.848;2023-03-01T16:12:42;12.33;;;11.07;;
20456;SDS011;10387;51.102;6.848;2023-03-01T16:15:13;9.13;;;7.97;;
20456;SDS011;10387;51.102;6.848;2023-03-01T16:17:45;9.13;;;7.97;;
20456;SDS011;10387;51.102;6.848;2023-03-01T16:20:20;11.53;;;8.70;;
20456;SDS011;10387;51.102;6.848;2023-03-01T16:22:46;13.10;;;8.97;;
20456;SDS011;10387;51.102;6.848;2023-03-01T16:25:13;12.67;;;9.43;;
20456;SDS011;10387;51.102;6.848;2023-03-01T16:27:44;12.97;;;9.53;;
20456;SDS011;10387;51.102;6.848;2023-03-01T16:30:11;15.97;;;11.97;;
20456;SDS011;10387;51.102;6.848;2023-03-01T16:32:42;11.33;;;8.80;;
20456;SDS011;10387;51.102;6.848;2023-03-01T16:35:10;15.17;;;11.47;;
20456;SDS011;10387;51.102;6.848;2023-03-01T16:37:37;19.00;;;14.53;;
20456;SDS011;10387;51.102;6.848;2023-03-01T16:40:04;11.37;;;8.70;;
20456;SDS011;10387;51.102;6.848;2023-03-01T16:42:33;10.27;;;8.60;;
20456;SDS011;10387;51.102;6.848;2023-03-01T16:45:06;11.97;;;8.87;;
20456;SDS011;10387;51.102;6.848;2023-03-01T16:47:32;13.00;;;8.70;;
20456;SDS011;10387;51.102;6.848;2023-03-01T16:49:59;8.30;;;7.27;;
20456;SDS011;10387;51.102;6.848;2023-03-01T16:52:25;9.00;;;7.83;;
20456;SDS011;10387;51.102;6.848;2023-03-01T16:54:52;11.63;;;8.73;;
20456;SDS011;10387;51.102;6.848;2023-03-01T16:57:17;10.13;;;8.30;;
20456;SDS011;10387;51.102;6.848;2023-03-01T16:59:43;10.83;;;8.03;;
20456;SDS011;10387;51.102;6.848;2023-03-01T17:02:12;10.93;;;7.67;;
20456;SDS011;10387;51.102;6.848;2023-03-01T17:04:39;10.33;;;8.10;;
20456;SDS011;10387;51.102;6.848;2023-03-01T17:07:05;9.07;;;7.63;;